createdAt,value
2022-12-17T00:02:40.846Z,124.64516
2022-12-17T00:07:42.758Z,129.54217
2022-12-17T00:12:44.673Z,137.10345
2022-12-17T00:17:46.477Z,135.30435
2022-12-17T00:22:48.584Z,135.90031
2022-12-17T00:27:50.538Z,139.55556
2022-12-17T00:32:52.319Z,145.96721
2022-12-17T00:37:54.035Z,134.12346
2022-12-17T00:42:58.029Z,133.53846
2022-12-17T00:47:59.593Z,140.17834
2022-12-17T00:53:01.476Z,138.32177
2022-12-17T00:58:02.916Z,137.71069
2022-12-17T01:03:04.475Z,132.3792
2022-12-17T01:08:06.205Z,124.11696
2022-12-17T01:13:07.799Z,126.24852
2022-12-17T01:18:09.661Z,150.71141
2022-12-17T01:23:11.517Z,166.38267
2022-12-17T01:28:13.220Z,205.01695
2022-12-17T01:33:15.217Z,240.15385
2022-12-17T01:38:16.899Z,244.4878
2022-12-17T01:43:18.363Z,354.66667
2022-12-17T01:48:20.314Z,414.22901
2022-12-17T01:53:22.465Z,436.8
2022-12-17T01:58:24.181Z,536.30769
2022-12-17T02:03:25.953Z,514.37037
2022-12-17T02:08:27.637Z,504
2022-12-17T02:13:29.156Z,429.03937
2022-12-17T02:18:30.855Z,363.04762
2022-12-17T02:23:33.146Z,286.22222
2022-12-17T02:28:34.839Z,280.61202
2022-12-17T02:33:36.664Z,363.04762
2022-12-17T02:38:38.538Z,259.89744
2022-12-17T02:43:40.060Z,235.94313
2022-12-17T02:48:42.167Z,221.47748
2022-12-17T02:53:44.277Z,230.51163
2022-12-17T02:58:45.738Z,221.47748
2022-12-17T03:03:50.226Z,264.83333
2022-12-17T03:08:52.244Z,240.15385
2022-12-17T03:13:53.873Z,224
2022-12-17T03:18:55.499Z,188.44444
2022-12-17T03:23:58.202Z,164.78853
2022-12-17T03:28:59.817Z,157.88889
2022-12-17T03:34:01.592Z,144.65147
2022-12-17T03:39:03.430Z,147.30033
2022-12-17T03:44:05.079Z,137.71069
2022-12-17T03:49:06.724Z,144.65147
2022-12-17T03:54:09.300Z,149.33333
2022-12-17T03:59:11.133Z,169.64103
2022-12-17T04:04:12.940Z,161.66784
2022-12-17T04:09:14.941Z,157.14879
2022-12-17T04:14:16.759Z,173.85075
2022-12-17T04:19:18.540Z,174.71161
2022-12-17T04:24:20.308Z,186.51969
2022-12-17T04:29:22.199Z,175.57895
2022-12-17T04:34:24.128Z,175.57895
2022-12-17T04:39:26.092Z,177.33333
2022-12-17T04:44:27.895Z,178.22053
2022-12-17T04:49:29.980Z,180.01533
2022-12-17T04:54:32.006Z,173.85075
2022-12-17T04:59:33.918Z,171.30627
2022-12-17T05:04:35.910Z,185.56863
2022-12-17T05:09:37.666Z,191.38956
2022-12-17T05:14:39.469Z,178.22053
2022-12-17T05:19:41.385Z,173.85075
2022-12-17T05:24:43.399Z,165.58273
2022-12-17T05:29:45.166Z,162.43972
2022-12-17T05:34:46.996Z,172.99628
2022-12-17T05:39:48.816Z,174.71161
2022-12-17T05:44:50.534Z,156.41379
2022-12-17T05:49:52.247Z,150.71141
2022-12-17T05:54:54.352Z,149.33333
2022-12-17T06:00:00.871Z,160.90141
2022-12-17T06:05:02.755Z,158.63415
2022-12-17T06:10:04.698Z,164
2022-12-17T06:15:06.593Z,168.81752
2022-12-17T06:20:08.595Z,164.78853
2022-12-17T06:25:10.721Z,155.68385
2022-12-17T06:30:18.309Z,151.40741
2022-12-17T06:35:20.624Z,148.65116
2022-12-17T06:40:22.378Z,149.33333
2022-12-17T06:45:24.225Z,142.70968
2022-12-17T06:50:25.896Z,140.80511
2022-12-17T06:55:28.181Z,147.97351
2022-12-17T07:00:30.201Z,154.9589
2022-12-17T07:05:32.028Z,152.81356
2022-12-17T07:10:33.957Z,160.90141
2022-12-17T07:15:35.599Z,140.17834
2022-12-17T07:20:37.323Z,167.18841
2022-12-17T07:25:44.322Z,184.625
2022-12-17T07:30:52.636Z,217.77778
2022-12-17T07:35:57.233Z,227.87097
2022-12-17T07:40:59.057Z,225.27854
2022-12-17T07:46:00.630Z,230.51163
2022-12-17T07:51:02.533Z,208.37768
2022-12-17T07:56:04.597Z,224
2022-12-17T08:01:06.508Z,222.73303
2022-12-17T08:06:08.094Z,224
2022-12-17T08:11:09.698Z,241.58454
2022-12-17T08:16:11.244Z,200.66667
2022-12-17T08:21:12.927Z,258.28571
2022-12-17T08:26:14.941Z,253.54774
2022-12-17T08:31:16.648Z,231.85047
2022-12-17T08:36:18.196Z,256.69036
2022-12-17T08:41:19.968Z,227.87097
2022-12-17T08:46:21.990Z,233.20188
2022-12-17T08:51:23.518Z,230.51163
2022-12-17T08:56:25.647Z,237.33333
2022-12-17T09:01:27.477Z,261.52577
2022-12-17T09:06:31.426Z,263.17098
2022-12-17T09:11:35.416Z,264.83333
2022-12-17T09:16:37.369Z,288.13408
2022-12-17T09:21:39.313Z,241.58454
2022-12-17T09:26:41.256Z,278.78261
2022-12-17T09:31:43.243Z,290.06742
2022-12-17T09:36:49.553Z,252
2022-12-17T09:41:53.235Z,263.17098
2022-12-17T09:46:55.050Z,271.65957
2022-12-17T09:51:56.655Z,264.83333
2022-12-17T09:56:58.341Z,264.83333
2022-12-17T10:01:59.914Z,258.28571
2022-12-17T10:07:01.681Z,304.23392
2022-12-17T10:12:03.278Z,276.97297
2022-12-17T10:17:09.938Z,266.51309
2022-12-17T10:22:13.865Z,321.91411
2022-12-17T10:27:15.876Z,273.41176
2022-12-17T10:32:17.886Z,269.92593
2022-12-17T10:37:19.746Z,286.22222
2022-12-17T10:42:21.657Z,294
2022-12-17T10:47:23.574Z,264.83333
2022-12-17T10:52:25.501Z,302.13953
2022-12-17T10:57:27.599Z,308.49704
2022-12-17T11:02:29.573Z,284.33149
2022-12-17T11:07:31.316Z,253.54774
2022-12-17T11:12:33.391Z,269.92593
2022-12-17T11:17:35.532Z,261.52577
2022-12-17T11:22:37.536Z,276.97297
2022-12-17T11:27:40.138Z,264.83333
2022-12-17T11:32:42.023Z,273.41176
2022-12-17T11:37:44.027Z,290.06742
2022-12-17T11:42:45.958Z,280.61202
2022-12-17T11:47:47.758Z,286.22222
2022-12-17T11:52:49.858Z,255.11111
2022-12-17T11:57:52.886Z,298.02299
2022-12-17T12:02:55.034Z,268.21053
2022-12-17T12:07:56.644Z,273.41176
2022-12-17T12:12:58.270Z,300.06936
2022-12-17T12:17:59.869Z,275.1828
2022-12-17T12:23:01.427Z,278.78261
2022-12-17T12:28:03.481Z,282.46154
2022-12-17T12:33:09.781Z,315.08434
2022-12-17T12:38:11.884Z,319.60976
2022-12-17T12:43:13.469Z,308.49704
2022-12-17T12:48:14.945Z,329
2022-12-17T12:53:16.604Z,310.66667
2022-12-17T12:58:18.293Z,304.23392
2022-12-17T13:03:19.901Z,341.41935
2022-12-17T13:08:21.892Z,354.66667
2022-12-17T13:13:23.564Z,331.42138
2022-12-17T13:18:25.237Z,324.24691
2022-12-17T13:23:26.975Z,357.42282
2022-12-17T13:28:28.676Z,338.87179
2022-12-17T13:33:30.142Z,349.26316
2022-12-17T13:38:31.711Z,365.91781
2022-12-17T13:43:33.639Z,333.87342
2022-12-17T13:48:35.291Z,417.84615
2022-12-17T13:53:37.253Z,390.37681
2022-12-17T13:58:39.582Z,393.63504
2022-12-17T14:04:05.185Z,393.63504
2022-12-17T14:09:08.212Z,368.82759
2022-12-17T14:14:10.025Z,407.15789
2022-12-17T14:19:11.809Z,429.03937
2022-12-17T14:24:13.538Z,390.37681
2022-12-17T14:29:15.696Z,360.21622
2022-12-17T14:34:17.634Z,346.61438
2022-12-17T14:39:19.464Z,354.66667
2022-12-17T14:44:21.750Z,351.94702
2022-12-17T14:49:23.745Z,410.66667
2022-12-17T14:54:25.500Z,371.77778
2022-12-17T14:59:27.952Z,349.26316
2022-12-17T15:04:30.405Z,414.22901
2022-12-17T15:09:32.225Z,365.91781
2022-12-17T15:14:34.021Z,344
2022-12-17T15:19:35.962Z,341.41935
2022-12-17T15:24:37.752Z,329
2022-12-17T15:29:39.790Z,425.25
2022-12-17T15:34:41.717Z,436.8
2022-12-17T15:39:43.598Z,400.2963
2022-12-17T15:44:45.475Z,444.81301
2022-12-17T15:49:47.723Z,407.15789
2022-12-17T15:54:49.567Z,407.15789
2022-12-17T15:59:51.684Z,374.76923
2022-12-17T16:04:53.627Z,329
2022-12-17T16:10:00.225Z,284.33149
2022-12-17T16:15:05.107Z,243.02913
2022-12-17T16:20:06.898Z,225.27854
2022-12-17T16:25:08.901Z,229.18519
2022-12-17T16:30:11.154Z,235.94313
2022-12-17T16:35:13.045Z,238.73684
2022-12-17T16:40:15.113Z,280.61202
2022-12-17T16:45:17.184Z,240.15385
2022-12-17T16:50:19.026Z,178.22053
2022-12-17T16:55:20.917Z,166.38267
2022-12-17T17:00:22.700Z,174.71161
2022-12-17T17:05:24.146Z,178.22053
2022-12-17T17:10:25.782Z,188.44444
2022-12-17T17:15:27.267Z,159.38462
2022-12-17T17:20:28.784Z,162.43972
2022-12-17T17:25:50.264Z,205.01695
2022-12-17T17:30:57.020Z,157.14879
2022-12-17T17:36:03.741Z,150.71141
2022-12-17T17:41:05.876Z,211.82609
2022-12-17T17:46:08.068Z,182.75969
2022-12-17T17:51:09.909Z,183.68872
2022-12-17T17:56:11.742Z,173.85075
2022-12-17T18:01:13.852Z,185.56863
2022-12-17T18:06:15.724Z,120.5043
2022-12-17T18:11:21.585Z,229.18519
2022-12-17T18:16:25.488Z,275.1828
2022-12-17T18:21:27.260Z,351.94702
2022-12-17T18:26:29.117Z,363.04762
2022-12-17T18:31:31.546Z,387.16547
2022-12-17T18:36:33.414Z,331.42138
2022-12-17T18:41:35.315Z,296
2022-12-17T18:46:37.311Z,292.0226
2022-12-17T18:51:39.299Z,286.22222
2022-12-17T18:57:00.644Z,288.13408
2022-12-17T19:02:03.876Z,319.60976
2022-12-17T19:07:05.900Z,292.0226
2022-12-17T19:12:07.681Z,172.14815
2022-12-17T19:17:09.503Z,158.63415
2022-12-17T19:22:11.277Z,278.78261
2022-12-17T19:27:13.279Z,138.32177
2022-12-17T19:32:15.514Z,125.71091
2022-12-17T19:37:17.282Z,181.83784
2022-12-17T19:42:18.765Z,147.30033
2022-12-17T19:47:20.401Z,198.54545
2022-12-17T19:52:22.385Z,178.22053
2022-12-17T19:57:24.274Z,255.11111
2022-12-17T20:02:32.285Z,255.11111
2022-12-17T20:07:35.007Z,271.65957
2022-12-17T20:12:36.812Z,306.35294
2022-12-17T20:17:38.857Z,308.49704
2022-12-17T20:22:40.689Z,319.60976
2022-12-17T20:27:42.375Z,172.14815
2022-12-17T20:32:44.372Z,124.64516
2022-12-17T20:37:45.859Z,259.89744
2022-12-17T20:42:47.663Z,113.23077
2022-12-17T20:47:49.621Z,104.41667
2022-12-17T20:52:51.736Z,100.743
2022-12-17T20:57:53.554Z,106.10526
2022-12-17T21:02:55.870Z,112.76712
2022-12-17T21:07:57.661Z,94.2439
2022-12-17T21:12:59.143Z,89.28302
2022-12-17T21:18:00.864Z,92.07692
2022-12-17T21:23:02.397Z,97.23383
2022-12-17T21:28:03.828Z,124.64516
2022-12-17T21:33:05.872Z,139.55556
2022-12-17T21:38:07.580Z,138.32177
2022-12-17T21:43:12.852Z,150.02007
2022-12-17T21:48:15.162Z,134.71207
2022-12-17T21:53:17.365Z,120.5043
2022-12-17T21:58:19.582Z,157.88889
2022-12-17T22:03:21.616Z,144
2022-12-17T22:08:23.548Z,145.30719
2022-12-17T22:13:25.687Z,166.38267
2022-12-17T22:18:27.651Z,140.17834
2022-12-17T22:23:29.468Z,145.96721
2022-12-17T22:28:31.425Z,136.5
2022-12-17T22:34:04.499Z,125.71091
2022-12-17T22:44:20.087Z,128.43114
2022-12-17T22:49:44.042Z,111.3913
2022-12-17T22:54:46.633Z,143.35275
2022-12-17T22:59:48.964Z,155.68385
2022-12-17T23:04:50.938Z,152.81356
2022-12-17T23:09:52.936Z,155.68385
2022-12-17T23:14:54.713Z,151.40741
2022-12-17T23:19:56.482Z,174.71161
2022-12-17T23:24:58.433Z,148.65116
2022-12-17T23:30:00.240Z,144.65147
2022-12-17T23:35:02.202Z,141.4359
2022-12-17T23:40:03.962Z,144.65147
2022-12-17T23:45:05.555Z,137.71069
2022-12-17T23:50:07.019Z,129.54217
2022-12-17T23:55:08.611Z,123.59184
